Time;durP1;ratioP1;P1;durP2;ratioP2;P2;SDS_P1;SDS_P2;PMS_P1;PMS_P2;Temp;Humidity;BMP_temperature;BMP_pressure;BME280_temperature;BME280_humidity;BME280_pressure;Samples;Min_cycle;Max_cycle;Signal;HPM_P1;HPM_P2
2023/09/06 00:00:52;;;;;;;2.78;2.55;;;20.20;1.00;;;;;;4959696;29;20213;-79
2023/09/06 00:03:19;;;;;;;3.03;2.60;;;20.10;1.00;;;;;;4969443;28;20217;-79
2023/09/06 00:05:47;;;;;;;4.45;3.15;;;20.10;99.90;;;;;;4954837;28;20206;-79
2023/09/06 00:08:16;;;;;;;4.68;2.20;;;20.10;26.30;;;;;;4971088;28;20202;-79
2023/09/06 00:10:45;;;;;;;2.50;2.15;;;20.20;1.00;;;;;;4977117;28;20568;-80
2023/09/06 00:13:14;;;;;;;3.35;2.80;;;20.20;1.00;;;;;;4961429;28;20206;-79
2023/09/06 00:15:43;;;;;;;2.90;2.45;;;20.10;29.80;;;;;;4966372;28;20215;-79
2023/09/06 00:18:11;;;;;;;3.38;2.28;;;20.10;1.00;;;;;;4973253;28;20603;-79
2023/09/06 00:20:39;;;;;;;3.45;2.47;;;20.00;1.00;;;;;;4962487;28;20208;-79
2023/09/06 00:23:09;;;;;;;2.55;2.35;;;20.10;99.90;;;;;;4977513;28;20228;-79
2023/09/06 00:25:37;;;;;;;3.33;2.28;;;20.00;99.90;;;;;;4960432;28;20221;-79
2023/09/06 00:28:07;;;;;;;4.70;3.10;;;20.00;5.60;;;;;;4976578;28;20699;-79
2023/09/06 00:30:35;;;;;;;4.88;3.20;;;20.00;1.00;;;;;;4967255;28;20209;-79
2023/09/06 00:33:05;;;;;;;3.22;2.90;;;19.90;1.00;;;;;;4958035;28;20205;-79
2023/09/06 00:35:33;;;;;;;6.15;2.80;;;19.80;99.90;;;;;;4967086;28;20703;-79
2023/09/06 00:38:04;;;;;;;5.53;3.10;;;19.80;38.60;;;;;;4958017;28;20201;-79
2023/09/06 00:40:35;;;;;;;3.17;2.70;;;19.80;1.00;;;;;;4959897;28;20208;-79
2023/09/06 00:43:04;;;;;;;3.67;3.10;;;19.80;1.00;;;;;;4971205;28;20225;-79
2023/09/06 00:45:41;;;;;;;4.05;2.95;;;19.70;1.00;;;;;;4959332;28;20222;-79
2023/09/06 00:48:10;;;;;;;4.03;3.00;;;19.70;54.50;;;;;;4973879;28;20573;-79
2023/09/06 00:50:40;;;;;;;2.60;2.40;;;19.70;1.00;;;;;;4969044;28;20205;-79
2023/09/06 00:53:10;;;;;;;5.60;3.20;;;19.80;99.90;;;;;;4961945;28;20206;-79
2023/09/06 00:55:38;;;;;;;2.58;2.38;;;19.90;1.00;;;;;;4959416;28;20233;-79
2023/09/06 00:58:06;;;;;;;4.43;3.08;;;20.00;99.90;;;;;;4955115;28;20206;-79
2023/09/06 01:00:35;;;;;;;3.58;2.88;;;19.80;99.90;;;;;;4967326;28;20205;-79
2023/09/06 01:03:05;;;;;;;3.75;2.42;;;19.80;1.00;;;;;;4976714;28;20222;-79
2023/09/06 01:05:41;;;;;;;3.25;2.90;;;19.50;1.00;;;;;;4974325;28;20237;-79
2023/09/06 01:08:14;;;;;;;3.95;3.05;;;19.60;1.00;;;;;;4958712;28;20201;-79
2023/09/06 01:10:41;;;;;;;4.40;2.97;;;19.50;99.90;;;;;;4952047;28;20204;-79
2023/09/06 01:13:08;;;;;;;3.08;2.75;;;19.40;1.00;;;;;;4971424;28;20566;-79
2023/09/06 01:15:40;;;;;;;3.97;3.00;;;19.30;99.90;;;;;;4957299;28;20226;-79
2023/09/06 01:18:08;;;;;;;3.13;2.80;;;19.30;1.00;;;;;;4952451;28;20202;-79
2023/09/06 01:20:42;;;;;;;3.45;2.95;;;19.40;99.90;;;;;;4956577;28;20205;-79
2023/09/06 01:23:27;;;;;;;4.45;2.78;;;19.50;99.90;;;;;;4976809;28;20221;-79
2023/09/06 01:25:55;;;;;;;4.43;2.80;;;19.40;1.00;;;;;;4958292;28;20206;-79
2023/09/06 01:28:27;;;;;;;4.85;2.92;;;19.30;99.90;;;;;;4978594;28;20209;-79
2023/09/06 01:30:54;;;;;;;4.10;2.60;;;19.30;1.00;;;;;;4963652;28;20202;-79
2023/09/06 01:33:22;;;;;;;3.60;2.80;;;19.40;1.00;;;;;;4971017;28;20687;-79
2023/09/06 01:35:49;;;;;;;3.85;2.80;;;19.40;99.90;;;;;;4951399;28;20198;-79
2023/09/06 01:38:17;;;;;;;3.75;2.78;;;19.50;1.00;;;;;;4976994;28;20209;-79
2023/09/06 01:40:46;;;;;;;3.47;2.88;;;19.60;1.00;;;;;;4965575;28;20206;-79
2023/09/06 01:43:14;;;;;;;4.30;3.05;;;19.60;1.00;;;;;;4969014;28;20225;-79
2023/09/06 01:45:45;;;;;;;4.10;2.65;;;19.50;1.00;;;;;;4973153;28;20205;-79
2023/09/06 01:48:12;;;;;;;3.92;2.72;;;19.30;1.00;;;;;;4970406;28;20225;-79
2023/09/06 01:50:41;;;;;;;4.93;2.72;;;19.30;1.00;;;;;;4975728;28;20212;-79
2023/09/06 01:53:08;;;;;;;2.65;2.45;;;19.30;1.00;;;;;;4957940;28;20194;-79
2023/09/06 01:55:36;;;;;;;2.80;2.55;;;19.40;1.00;;;;;;4961836;28;20221;-79
2023/09/06 01:58:05;;;;;;;2.88;2.58;;;19.30;1.00;;;;;;4967048;28;20575;-79
2023/09/06 02:00:35;;;;;;;4.00;2.65;;;19.30;1.00;;;;;;4974888;28;20202;-79
2023/09/06 02:03:03;;;;;;;2.75;2.50;;;19.20;1.00;;;;;;4968188;28;20224;-79
2023/09/06 02:05:31;;;;;;;4.28;3.00;;;19.20;1.00;;;;;;4952726;28;20229;-79
2023/09/06 02:07:59;;;;;;;3.33;2.35;;;19.20;99.90;;;;;;4975400;28;20209;-79
2023/09/06 02:10:27;;;;;;;4.93;3.00;;;19.20;1.00;;;;;;4960011;28;20213;-79
2023/09/06 02:12:54;;;;;;;3.40;2.50;;;19.20;1.00;;;;;;4966820;28;20212;-79
2023/09/06 02:15:23;;;;;;;3.97;2.45;;;19.10;1.00;;;;;;4951790;28;20233;-79
2023/09/06 02:17:51;;;;;;;4.47;3.33;;;19.10;1.00;;;;;;4959153;28;20197;-79
2023/09/06 02:20:20;;;;;;;4.18;2.63;;;19.10;99.90;;;;;;4959023;28;20198;-79
2023/09/06 02:22:51;;;;;;;3.38;3.03;;;19.00;99.90;;;;;;4974310;28;20905;-79
2023/09/06 02:25:21;;;;;;;2.80;2.50;;;19.00;99.90;;;;;;4974405;28;20221;-79
2023/09/06 02:27:49;;;;;;;3.03;2.65;;;19.20;1.00;;;;;;4953965;28;20210;-79
2023/09/06 02:30:17;;;;;;;6.53;3.33;;;18.90;1.00;;;;;;4971544;28;20205;-79
2023/09/06 02:32:47;;;;;;;2.60;2.40;;;18.80;44.80;;;;;;4974162;28;20225;-79
2023/09/06 02:35:15;;;;;;;3.50;2.70;;;18.50;99.90;;;;;;4966046;28;20221;-79
2023/09/06 02:37:42;;;;;;;3.00;2.70;;;18.50;99.90;;;;;;4958308;28;20201;-79
2023/09/06 02:40:13;;;;;;;3.95;2.88;;;18.50;99.90;;;;;;4952337;28;20202;-79
2023/09/06 02:42:41;;;;;;;4.57;2.83;;;18.60;16.90;;;;;;4964034;29;20597;-79
2023/09/06 02:45:11;;;;;;;3.28;2.65;;;18.70;1.00;;;;;;4961789;28;20222;-79
2023/09/06 02:47:47;;;;;;;3.63;2.67;;;18.70;99.90;;;;;;4977218;28;20206;-79
2023/09/06 02:50:17;;;;;;;3.75;3.15;;;18.80;1.00;;;;;;4973420;28;20209;-79
2023/09/06 02:52:45;;;;;;;4.43;2.92;;;18.80;99.90;;;;;;4961619;28;20209;-79
2023/09/06 02:55:14;;;;;;;2.80;2.47;;;18.70;1.00;;;;;;4955093;28;20234;-79
2023/09/06 02:57:42;;;;;;;3.22;2.70;;;18.70;1.00;;;;;;4946382;28;20222;-79
2023/09/06 03:00:24;;;;;;;5.80;2.80;;;18.90;1.00;;;;;;4963913;28;20214;-79
2023/09/06 03:02:52;;;;;;;3.33;2.83;;;18.90;1.00;;;;;;4972468;28;20218;-79
2023/09/06 03:05:22;;;;;;;2.65;2.42;;;19.00;99.90;;;;;;4958408;28;20266;-79
2023/09/06 03:07:53;;;;;;;4.30;2.28;;;18.90;99.90;;;;;;4974864;28;20224;-79
2023/09/06 03:10:23;;;;;;;4.13;2.97;;;18.80;99.90;;;;;;4979453;28;20201;-79
2023/09/06 03:12:55;;;;;;;4.30;2.90;;;18.80;1.00;;;;;;4974741;28;20206;-79
2023/09/06 03:15:28;;;;;;;2.75;2.55;;;18.70;1.00;;;;;;4957468;28;20683;-79
2023/09/06 03:18:01;;;;;;;3.28;2.28;;;18.70;1.00;;;;;;4967658;28;20668;-79
2023/09/06 03:20:34;;;;;;;3.15;2.67;;;18.80;1.00;;;;;;4958174;28;20201;-79
2023/09/06 03:23:16;;;;;;;2.40;2.10;;;18.80;1.00;;;;;;4969883;28;20213;-79
2023/09/06 03:25:45;;;;;;;3.17;2.50;;;18.70;99.90;;;;;;4956563;28;20213;-79
2023/09/06 03:28:15;;;;;;;2.60;2.40;;;18.60;1.00;;;;;;4957337;28;20221;-79
2023/09/06 03:30:43;;;;;;;2.45;2.25;;;18.60;99.90;;;;;;4971864;28;20671;-79
2023/09/06 03:33:10;;;;;;;2.38;2.17;;;18.60;1.00;;;;;;4972833;28;20202;-79
2023/09/06 03:35:39;;;;;;;2.42;2.22;;;18.60;99.90;;;;;;4965303;28;20217;-79
2023/09/06 03:38:08;;;;;;;3.00;2.70;;;18.60;33.30;;;;;;4974134;28;20217;-79
2023/09/06 03:40:36;;;;;;;2.47;2.25;;;18.60;1.00;;;;;;4958245;28;20216;-79
2023/09/06 03:43:14;;;;;;;3.90;2.33;;;18.60;1.00;;;;;;4957833;28;20217;-79
2023/09/06 03:45:44;;;;;;;2.65;2.30;;;18.50;1.00;;;;;;4951150;28;20212;-79
2023/09/06 03:48:12;;;;;;;2.83;2.28;;;18.50;1.00;;;;;;4964421;28;20205;-80
2023/09/06 03:50:43;;;;;;;2.75;2.40;;;18.50;1.00;;;;;;4972860;28;20217;-79
2023/09/06 03:53:12;;;;;;;3.47;2.78;;;18.50;1.00;;;;;;4977197;28;20684;-79
2023/09/06 03:55:41;;;;;;;2.72;2.53;;;18.40;64.40;;;;;;4973562;28;20221;-79
2023/09/06 03:58:12;;;;;;;4.32;2.70;;;18.40;1.00;;;;;;4967756;28;20206;-79
2023/09/06 04:00:43;;;;;;;3.22;2.53;;;18.40;99.90;;;;;;4953138;28;20201;-79
2023/09/06 04:03:20;;;;;;;4.30;3.00;;;18.40;1.00;;;;;;4961129;28;20214;-79
2023/09/06 04:05:50;;;;;;;5.20;3.00;;;18.40;1.00;;;;;;4974316;28;20205;-79
2023/09/06 04:08:19;;;;;;;2.58;2.38;;;18.40;99.90;;;;;;4958751;28;20668;-79
2023/09/06 04:10:50;;;;;;;6.10;3.22;;;18.20;1.00;;;;;;4953485;28;20233;-79
2023/09/06 04:13:18;;;;;;;4.07;3.17;;;18.20;1.00;;;;;;4957699;28;20205;-79
2023/09/06 04:15:46;;;;;;;4.75;3.65;;;18.30;99.90;;;;;;4971788;28;20228;-79
2023/09/06 04:18:14;;;;;;;5.60;3.25;;;18.00;1.00;;;;;;4964063;28;20211;-79
2023/09/06 04:20:46;;;;;;;4.20;3.28;;;18.00;99.90;;;;;;4960223;28;20206;-79
2023/09/06 04:23:16;;;;;;;3.75;3.00;;;18.10;1.00;;;;;;4972503;28;20590;-79
2023/09/06 04:25:48;;;;;;;3.50;2.90;;;18.10;99.90;;;;;;4973638;28;20194;-79
2023/09/06 04:28:20;;;;;;;5.03;3.17;;;18.20;99.90;;;;;;4972241;28;20213;-79
2023/09/06 04:30:49;;;;;;;3.85;3.03;;;18.30;1.00;;;;;;4958602;28;20198;-79
2023/09/06 04:33:20;;;;;;;5.75;3.42;;;18.40;1.00;;;;;;4975752;28;20209;-79
2023/09/06 04:35:53;;;;;;;6.60;3.65;;;18.50;1.00;;;;;;4973103;28;20206;-79
2023/09/06 04:38:24;;;;;;;5.10;3.75;;;18.60;99.90;;;;;;4965016;28;20210;-79
2023/09/06 04:40:56;;;;;;;3.78;3.00;;;18.70;99.90;;;;;;4944632;28;20202;-79
2023/09/06 04:43:25;;;;;;;6.18;3.63;;;18.60;99.90;;;;;;4956962;28;20221;-78
2023/09/06 04:45:54;;;;;;;4.32;3.15;;;18.60;1.00;;;;;;4969066;28;20213;-78
2023/09/06 04:48:23;;;;;;;3.90;3.20;;;18.70;1.00;;;;;;4957617;29;20302;-78
2023/09/06 04:50:56;;;;;;;4.68;3.15;;;18.70;99.90;;;;;;4973196;28;20214;-78
2023/09/06 04:53:27;;;;;;;5.97;4.57;;;18.80;99.90;;;;;;4950129;28;20213;-78
2023/09/06 04:55:55;;;;;;;4.25;3.60;;;18.90;1.00;;;;;;4956528;29;20206;-78
2023/09/06 04:58:35;;;;;;;4.18;3.67;;;19.00;1.00;;;;;;4950566;29;20582;-78
2023/09/06 05:01:06;;;;;;;7.07;4.13;;;19.00;12.50;;;;;;4966009;28;20210;-78
2023/09/06 05:03:35;;;;;;;4.57;3.67;;;19.10;62.60;;;;;;4970275;28;20225;-78
2023/09/06 05:06:03;;;;;;;5.80;4.28;;;19.00;1.00;;;;;;4956271;29;20209;-78
2023/09/06 05:08:32;;;;;;;5.25;3.92;;;19.10;7.80;;;;;;4949533;28;20202;-78
2023/09/06 05:11:06;;;;;;;7.88;3.78;;;19.20;1.00;;;;;;4958878;28;20201;-78
2023/09/06 05:13:38;;;;;;;4.63;3.33;;;19.30;1.00;;;;;;4973588;28;20209;-78
2023/09/06 05:16:07;;;;;;;5.13;3.80;;;19.30;99.90;;;;;;4972448;28;20198;-78
2023/09/06 05:18:35;;;;;;;4.85;3.42;;;19.30;99.90;;;;;;4948893;29;20209;-78
2023/09/06 05:21:04;;;;;;;3.72;3.25;;;19.30;1.00;;;;;;4949588;28;20208;-78
2023/09/06 05:23:35;;;;;;;4.22;3.05;;;19.40;1.00;;;;;;4954990;28;20201;-78
2023/09/06 05:26:03;;;;;;;4.65;3.35;;;19.50;1.00;;;;;;4971643;28;20201;-78
2023/09/06 05:28:36;;;;;;;4.38;3.17;;;19.50;99.90;;;;;;4972004;28;20228;-78
2023/09/06 05:31:06;;;;;;;4.68;3.42;;;19.60;99.90;;;;;;4964735;28;20683;-78
2023/09/06 05:33:39;;;;;;;4.53;3.20;;;19.60;1.00;;;;;;4956129;28;20217;-78
2023/09/06 05:36:08;;;;;;;4.85;2.88;;;19.70;99.90;;;;;;4972489;28;20205;-78
2023/09/06 05:38:37;;;;;;;3.75;3.20;;;19.70;99.90;;;;;;4955973;28;20209;-78
2023/09/06 05:41:06;;;;;;;3.67;2.97;;;19.70;99.90;;;;;;4969492;28;20206;-78
2023/09/06 05:43:38;;;;;;;4.40;3.55;;;19.80;99.90;;;;;;4954468;28;20226;-78
2023/09/06 05:46:05;;;;;;;3.58;2.78;;;19.90;1.00;;;;;;4953714;28;20209;-78
2023/09/06 05:48:33;;;;;;;3.88;3.03;;;20.00;99.90;;;;;;4969754;28;20210;-78
2023/09/06 05:51:01;;;;;;;3.95;3.00;;;20.00;99.90;;;;;;4951874;28;20209;-78
2023/09/06 05:53:29;;;;;;;4.95;2.85;;;20.10;99.90;;;;;;4967638;28;20209;-78
2023/09/06 05:56:00;;;;;;;3.25;2.95;;;20.10;1.00;;;;;;4953835;28;20206;-78
2023/09/06 05:58:30;;;;;;;4.30;3.35;;;20.10;99.90;;;;;;4971582;28;20217;-78
2023/09/06 06:00:58;;;;;;;5.05;3.50;;;20.10;99.90;;;;;;4969371;28;20201;-78
2023/09/06 06:03:25;;;;;;;3.70;3.17;;;20.20;99.90;;;;;;4969584;28;20560;-78
2023/09/06 06:05:55;;;;;;;6.47;4.13;;;20.20;99.90;;;;;;4966207;28;20593;-78
2023/09/06 06:08:22;;;;;;;4.00;2.85;;;20.30;99.90;;;;;;4968736;28;20197;-78
2023/09/06 06:10:50;;;;;;;3.83;2.63;;;20.50;90.50;;;;;;4955254;28;20217;-78
2023/09/06 06:13:19;;;;;;;5.63;3.17;;;20.50;1.00;;;;;;4955358;28;20198;-78
2023/09/06 06:15:46;;;;;;;3.95;3.17;;;20.60;1.00;;;;;;4970645;28;20221;-78
2023/09/06 06:18:15;;;;;;;3.33;3.00;;;20.60;1.00;;;;;;4970928;28;20228;-78
2023/09/06 06:20:43;;;;;;;3.78;2.80;;;20.70;1.00;;;;;;4955131;28;20194;-78
2023/09/06 06:23:10;;;;;;;4.20;2.83;;;20.80;1.00;;;;;;4971663;28;20202;-78
2023/09/06 06:25:38;;;;;;;3.42;2.45;;;20.80;1.00;;;;;;4956352;28;20228;-78
2023/09/06 06:28:07;;;;;;;3.47;2.58;;;20.80;1.00;;;;;;4954181;28;20205;-78
2023/09/06 06:30:36;;;;;;;3.72;2.60;;;20.90;1.00;;;;;;4978183;28;20205;-78
2023/09/06 06:33:04;;;;;;;2.95;2.55;;;21.10;1.00;;;;;;4957355;28;20201;-78
2023/09/06 06:35:32;;;;;;;4.07;2.60;;;21.10;99.90;;;;;;4953161;28;20214;-78
2023/09/06 06:38:01;;;;;;;4.55;2.70;;;21.10;99.90;;;;;;4953416;28;20206;-78
2023/09/06 06:40:29;;;;;;;3.55;3.20;;;21.20;99.90;;;;;;4955784;28;20201;-78
2023/09/06 06:42:57;;;;;;;3.45;2.75;;;21.40;99.90;;;;;;4954373;28;20205;-78
2023/09/06 06:45:24;;;;;;;3.30;2.40;;;21.40;99.90;;;;;;4973980;28;20229;-78
2023/09/06 06:47:53;;;;;;;4.97;3.05;;;21.50;99.90;;;;;;4969507;28;20206;-79
2023/09/06 06:50:21;;;;;;;4.43;2.47;;;21.50;99.90;;;;;;4963120;28;20206;-79
2023/09/06 06:52:49;;;;;;;5.85;3.17;;;21.50;99.90;;;;;;4968028;28;20213;-78
2023/09/06 06:55:16;;;;;;;3.38;2.55;;;21.60;99.90;;;;;;4968920;28;20218;-78
2023/09/06 06:57:44;;;;;;;3.22;2.60;;;21.70;99.90;;;;;;4969579;28;20208;-78
2023/09/06 07:00:17;;;;;;;3.05;2.40;;;21.70;96.20;;;;;;4954637;28;20540;-78
2023/09/06 07:02:46;;;;;;;3.33;2.72;;;21.80;62.10;;;;;;4969428;28;20205;-78
2023/09/06 07:05:15;;;;;;;3.03;2.30;;;21.80;22.30;;;;;;4954991;28;20230;-78
2023/09/06 07:07:42;;;;;;;5.10;2.72;;;21.90;1.00;;;;;;4971575;28;20198;-78
2023/09/06 07:10:11;;;;;;;3.92;2.47;;;21.90;1.00;;;;;;4948400;28;20202;-78
2023/09/06 07:12:38;;;;;;;4.03;2.47;;;22.00;1.00;;;;;;4972011;28;20208;-78
2023/09/06 07:15:07;;;;;;;2.90;2.60;;;22.00;1.00;;;;;;4955197;28;20213;-78
2023/09/06 07:17:35;;;;;;;4.13;2.42;;;22.10;1.00;;;;;;4955145;28;20205;-78
2023/09/06 07:20:05;;;;;;;2.97;2.63;;;22.20;1.00;;;;;;4970123;28;20221;-78
2023/09/06 07:22:33;;;;;;;3.95;2.58;;;22.30;1.00;;;;;;4954338;29;20217;-78
2023/09/06 07:25:01;;;;;;;4.65;2.75;;;22.40;1.00;;;;;;4971652;28;20233;-78
2023/09/06 07:27:28;;;;;;;4.93;3.08;;;22.40;1.00;;;;;;4955565;28;20197;-79
2023/09/06 07:29:56;;;;;;;3.80;2.90;;;22.40;1.00;;;;;;4967368;28;20206;-79
2023/09/06 07:32:23;;;;;;;4.70;3.00;;;22.50;1.00;;;;;;4971613;28;20197;-79
2023/09/06 07:34:51;;;;;;;3.83;3.15;;;22.50;1.00;;;;;;4973477;28;20221;-79
2023/09/06 07:37:20;;;;;;;4.18;2.90;;;22.60;1.00;;;;;;4949590;28;20214;-79
2023/09/06 07:39:48;;;;;;;3.97;2.70;;;22.70;1.00;;;;;;4958354;29;20211;-79
2023/09/06 07:42:16;;;;;;;4.03;2.67;;;22.60;1.00;;;;;;4960223;28;20236;-79
2023/09/06 07:44:43;;;;;;;4.55;3.03;;;22.70;1.00;;;;;;4973796;28;20225;-79
2023/09/06 07:47:11;;;;;;;3.95;2.72;;;22.80;1.00;;;;;;4959597;28;20209;-79
2023/09/06 07:49:38;;;;;;;4.55;2.97;;;22.90;1.00;;;;;;4951803;29;20896;-79
2023/09/06 07:52:08;;;;;;;3.08;2.75;;;22.90;1.00;;;;;;4952257;28;20205;-79
2023/09/06 07:54:35;;;;;;;5.05;3.08;;;23.00;1.00;;;;;;4951391;28;20237;-79
2023/09/06 07:57:05;;;;;;;3.97;3.00;;;23.00;1.00;;;;;;4962888;28;20206;-79
2023/09/06 07:59:33;;;;;;;4.57;3.47;;;23.10;1.00;;;;;;4963030;29;20212;-79
2023/09/06 08:02:00;;;;;;;5.85;3.08;;;23.20;1.00;;;;;;4978152;28;20205;-79
2023/09/06 08:04:28;;;;;;;4.57;3.17;;;23.20;1.00;;;;;;4963356;28;20240;-79
2023/09/06 08:06:56;;;;;;;4.90;3.30;;;23.30;1.00;;;;;;4976751;28;20232;-79
2023/09/06 08:09:23;;;;;;;4.13;2.75;;;23.40;1.00;;;;;;4955924;29;20205;-79
2023/09/06 08:11:50;;;;;;;4.30;3.10;;;23.40;1.00;;;;;;4978507;28;20208;-79
2023/09/06 08:14:19;;;;;;;3.53;3.17;;;23.50;99.90;;;;;;4971850;28;20226;-79
2023/09/06 08:16:47;;;;;;;5.50;3.50;;;23.50;99.90;;;;;;4974746;28;20197;-79
2023/09/06 08:19:14;;;;;;;3.83;3.28;;;23.50;99.90;;;;;;4962434;28;20690;-79
2023/09/06 08:21:43;;;;;;;5.03;3.30;;;23.60;99.90;;;;;;4958628;28;20202;-79
2023/09/06 08:24:11;;;;;;;3.85;3.05;;;23.70;99.90;;;;;;4967400;28;20226;-79
2023/09/06 08:26:38;;;;;;;3.28;2.97;;;23.80;99.90;;;;;;4974058;28;20225;-79
2023/09/06 08:29:06;;;;;;;4.10;3.33;;;23.80;99.90;;;;;;4962042;28;20503;-79
2023/09/06 08:31:35;;;;;;;3.60;3.28;;;23.80;99.90;;;;;;4960810;28;20221;-79
2023/09/06 08:34:03;;;;;;;5.90;3.22;;;23.90;99.90;;;;;;4955603;28;20218;-79
2023/09/06 08:36:31;;;;;;;3.50;2.95;;;23.90;99.90;;;;;;4969910;28;20204;-79
2023/09/06 08:38:58;;;;;;;4.70;3.22;;;24.00;99.90;;;;;;4961842;29;20209;-79
2023/09/06 08:41:27;;;;;;;4.03;3.13;;;24.00;99.90;;;;;;4977892;28;20205;-79
2023/09/06 08:43:55;;;;;;;3.28;3.00;;;24.10;99.90;;;;;;4978170;28;20242;-79
2023/09/06 08:46:28;;;;;;;3.97;3.17;;;24.10;99.90;;;;;;4969958;28;20230;-79
2023/09/06 08:48:59;;;;;;;3.22;2.92;;;24.20;99.90;;;;;;4972861;28;20213;-79
2023/09/06 08:51:32;;;;;;;3.47;3.15;;;24.30;99.90;;;;;;4973077;28;20209;-79
2023/09/06 08:54:00;;;;;;;3.40;3.00;;;24.30;99.90;;;;;;4962299;28;20218;-79
2023/09/06 08:56:28;;;;;;;3.50;3.00;;;24.40;99.90;;;;;;4976742;28;20202;-79
2023/09/06 08:58:55;;;;;;;4.25;3.70;;;24.50;99.90;;;;;;4960157;28;20237;-79
2023/09/06 09:01:23;;;;;;;4.10;3.35;;;24.50;99.90;;;;;;4977043;28;20198;-79
2023/09/06 09:03:51;;;;;;;4.20;3.72;;;24.50;99.90;;;;;;4969188;28;20230;-79
2023/09/06 09:06:20;;;;;;;4.35;3.10;;;24.60;99.20;;;;;;4975430;28;20220;-79
2023/09/06 09:08:48;;;;;;;5.07;3.15;;;24.60;97.10;;;;;;4971635;28;20194;-79
2023/09/06 09:11:18;;;;;;;5.00;3.50;;;24.60;99.90;;;;;;4967714;28;20261;-79
2023/09/06 09:13:46;;;;;;;4.30;3.60;;;24.70;99.90;;;;;;4956003;28;20217;-79
2023/09/06 09:16:15;;;;;;;4.55;3.15;;;24.80;64.50;;;;;;4975071;28;20198;-79
2023/09/06 09:18:44;;;;;;;3.70;3.30;;;24.80;75.60;;;;;;4962314;28;20204;-79
2023/09/06 09:21:13;;;;;;;3.90;3.60;;;24.80;99.90;;;;;;4968016;28;20201;-79
2023/09/06 09:23:47;;;;;;;4.30;3.90;;;24.90;63.80;;;;;;4973431;28;20218;-79
2023/09/06 09:26:15;;;;;;;4.00;3.60;;;24.90;99.90;;;;;;4971820;28;20218;-79
2023/09/06 09:28:43;;;;;;;5.10;3.63;;;25.00;96.30;;;;;;4952891;28;20209;-79
2023/09/06 09:31:15;;;;;;;4.18;3.63;;;25.10;21.50;;;;;;4957681;28;20209;-79
2023/09/06 09:33:44;;;;;;;3.83;3.20;;;25.10;33.50;;;;;;4954048;28;20719;-78
2023/09/06 09:36:14;;;;;;;5.55;3.90;;;25.20;1.00;;;;;;4958054;28;20210;-79
2023/09/06 09:38:42;;;;;;;3.55;3.25;;;25.30;1.00;;;;;;4956542;28;20545;-79
2023/09/06 09:41:11;;;;;;;3.80;3.50;;;25.30;24.30;;;;;;4957969;28;20210;-79
2023/09/06 09:43:39;;;;;;;3.95;3.40;;;25.40;1.00;;;;;;4972442;28;20217;-79
2023/09/06 09:46:07;;;;;;;5.10;3.70;;;25.50;1.00;;;;;;4959216;28;20548;-79
2023/09/06 09:48:36;;;;;;;5.03;4.22;;;25.60;1.00;;;;;;4954389;28;20202;-78
2023/09/06 09:51:07;;;;;;;3.80;3.40;;;25.70;1.00;;;;;;4965155;28;20565;-78
2023/09/06 09:53:36;;;;;;;6.35;3.80;;;25.80;1.00;;;;;;4955658;28;20229;-78
2023/09/06 09:56:07;;;;;;;6.30;4.03;;;25.80;1.00;;;;;;4955547;28;20202;-80
2023/09/06 09:58:36;;;;;;;4.50;4.10;;;25.90;1.00;;;;;;4964407;28;20214;-80
2023/09/06 10:01:05;;;;;;;3.60;3.30;;;26.00;1.00;;;;;;4971707;28;20209;-80
2023/09/06 10:03:34;;;;;;;4.25;3.85;;;26.10;1.00;;;;;;4973304;28;20198;-80
2023/09/06 10:06:04;;;;;;;4.88;3.65;;;26.10;1.00;;;;;;4972484;28;20221;-80
2023/09/06 10:08:35;;;;;;;3.97;3.28;;;26.20;1.00;;;;;;4956668;28;20209;-80
2023/09/06 10:11:05;;;;;;;3.92;3.53;;;26.40;1.00;;;;;;4974217;28;20695;-80
2023/09/06 10:13:37;;;;;;;5.95;3.38;;;26.40;1.00;;;;;;4958865;28;20198;-80
2023/09/06 10:16:06;;;;;;;3.63;2.80;;;26.60;1.00;;;;;;4955752;28;20194;-81
2023/09/06 10:18:35;;;;;;;3.97;3.58;;;26.70;1.00;;;;;;4957432;28;20197;-81
2023/09/06 10:21:04;;;;;;;5.90;3.92;;;26.80;1.00;;;;;;4971254;28;20217;-81
2023/09/06 10:23:34;;;;;;;4.10;3.60;;;26.80;1.00;;;;;;4956155;28;20198;-81
2023/09/06 10:26:03;;;;;;;5.40;3.60;;;26.80;1.00;;;;;;4957591;28;20197;-81
2023/09/06 10:28:33;;;;;;;4.90;3.55;;;26.80;1.00;;;;;;4972453;28;20202;-81
2023/09/06 10:31:08;;;;;;;3.50;3.20;;;27.00;1.00;;;;;;4972369;28;20205;-81
2023/09/06 10:33:55;;;;;;;3.55;3.25;;;27.00;1.00;;;;;;4955775;28;20944;-81
2023/09/06 10:36:27;;;;;;;3.63;3.20;;;27.10;1.00;;;;;;4967299;28;20276;-79
2023/09/06 10:39:18;;;;;;;5.78;3.10;;;27.30;1.00;;;;;;4966499;28;20217;-79
2023/09/06 10:42:27;;;;;;;4.22;3.20;;;27.40;1.00;;;;;;4947526;28;20217;-79
2023/09/06 10:45:10;;;;;;;3.65;2.92;;;27.50;1.00;;;;;;4952425;28;20230;-79
2023/09/06 10:47:40;;;;;;;2.83;2.63;;;27.60;1.00;;;;;;4971392;28;20217;-79
2023/09/06 10:50:11;;;;;;;2.80;2.50;;;27.80;1.00;;;;;;4953764;28;20201;-79
2023/09/06 10:52:41;;;;;;;5.32;2.90;;;27.70;1.00;;;;;;4970164;28;20197;-78
2023/09/06 10:55:16;;;;;;;3.75;2.95;;;27.60;1.00;;;;;;4954486;28;20594;-78
2023/09/06 10:57:48;;;;;;;3.00;2.80;;;27.60;1.00;;;;;;4953693;28;20197;-79
2023/09/06 11:00:19;;;;;;;3.83;2.88;;;27.70;1.00;;;;;;4956949;28;20214;-79
2023/09/06 11:03:21;;;;;;;4.18;3.15;;;27.80;1.00;;;;;;4952798;28;20197;-79
2023/09/06 11:05:54;;;;;;;3.50;2.85;;;27.90;1.00;;;;;;4947742;28;20206;-79
2023/09/06 11:08:29;;;;;;;3.10;2.80;;;28.00;1.00;;;;;;4950708;28;20222;-79
2023/09/06 11:11:01;;;;;;;3.03;2.72;;;28.10;1.00;;;;;;4949026;28;20667;-79
2023/09/06 11:13:32;;;;;;;3.80;3.22;;;28.20;1.00;;;;;;4955726;28;20568;-79
2023/09/06 11:16:02;;;;;;;5.70;3.42;;;28.30;1.00;;;;;;4960109;28;20213;-79
2023/09/06 11:18:35;;;;;;;5.78;3.10;;;28.40;1.00;;;;;;4960400;28;20206;-79
2023/09/06 11:21:02;;;;;;;4.43;3.03;;;28.40;1.00;;;;;;4966786;28;20201;-79
2023/09/06 11:23:31;;;;;;;3.10;2.80;;;28.60;1.00;;;;;;4965767;28;20195;-79
2023/09/06 11:25:59;;;;;;;3.35;2.92;;;28.80;1.00;;;;;;4948908;29;20543;-79
2023/09/06 11:28:30;;;;;;;2.63;2.42;;;28.80;1.00;;;;;;4976385;28;20228;-79
2023/09/06 11:31:00;;;;;;;2.92;2.60;;;28.80;1.00;;;;;;4955294;28;20209;-79
2023/09/06 11:33:32;;;;;;;3.58;2.72;;;28.70;1.00;;;;;;4954702;28;20208;-79
2023/09/06 11:36:03;;;;;;;3.78;3.13;;;28.70;1.00;;;;;;4945735;29;20692;-78
2023/09/06 11:38:43;;;;;;;5.80;3.42;;;28.70;1.00;;;;;;4958623;28;20213;-78
2023/09/06 11:41:12;;;;;;;3.50;2.70;;;28.90;1.00;;;;;;4952496;28;20206;-79
2023/09/06 11:43:43;;;;;;;4.07;2.50;;;29.10;1.00;;;;;;4949794;28;20225;-79
2023/09/06 11:46:14;;;;;;;3.30;2.33;;;29.10;1.00;;;;;;4968477;28;20202;-79
2023/09/06 11:48:43;;;;;;;3.90;2.83;;;29.40;1.00;;;;;;4968042;28;20232;-78
2023/09/06 11:51:13;;;;;;;3.88;2.53;;;29.50;1.00;;;;;;4970283;28;20208;-78
2023/09/06 11:53:45;;;;;;;3.40;2.67;;;29.40;1.00;;;;;;4955255;28;20228;-78
2023/09/06 11:56:14;;;;;;;3.08;2.80;;;29.30;1.00;;;;;;4947193;29;20553;-78
2023/09/06 11:58:49;;;;;;;4.95;2.80;;;29.60;1.00;;;;;;4955355;28;20197;-78
2023/09/06 12:01:24;;;;;;;11.40;2.63;;;29.50;1.00;;;;;;4962240;28;20707;-78
2023/09/06 12:03:56;;;;;;;3.03;2.65;;;29.70;1.00;;;;;;4955765;28;20221;-78
2023/09/06 12:06:26;;;;;;;5.82;2.97;;;29.90;1.00;;;;;;4955023;29;20556;-78
2023/09/06 12:08:54;;;;;;;3.22;2.72;;;29.70;1.00;;;;;;4970064;28;20225;-78
2023/09/06 12:11:24;;;;;;;4.55;2.90;;;29.80;1.00;;;;;;4970044;28;20205;-78
2023/09/06 12:13:54;;;;;;;2.58;2.38;;;29.70;1.00;;;;;;4938935;29;20219;-78
2023/09/06 12:16:23;;;;;;;5.05;2.53;;;29.80;1.00;;;;;;4950283;29;20202;-78
2023/09/06 12:18:51;;;;;;;2.65;2.42;;;29.90;1.00;;;;;;4955543;28;20218;-78
2023/09/06 12:21:21;;;;;;;2.53;2.33;;;30.20;1.00;;;;;;4961130;28;20213;-78
2023/09/06 12:23:51;;;;;;;2.78;2.40;;;29.90;1.00;;;;;;4969415;28;20214;-78
2023/09/06 12:26:19;;;;;;;2.35;1.90;;;30.20;1.00;;;;;;4953057;29;20214;-78
2023/09/06 12:28:47;;;;;;;2.58;2.30;;;30.60;1.00;;;;;;4963350;28;20214;-78
2023/09/06 12:31:15;;;;;;;3.70;2.30;;;30.50;1.00;;;;;;4954093;28;20201;-78
2023/09/06 12:33:45;;;;;;;2.85;2.45;;;30.30;1.00;;;;;;4963924;28;20225;-78
2023/09/06 12:36:13;;;;;;;3.47;1.88;;;30.30;1.00;;;;;;4949654;29;20205;-78
2023/09/06 12:38:42;;;;;;;3.97;3.10;;;30.40;1.00;;;;;;4960613;28;20203;-78
2023/09/06 12:41:12;;;;;;;2.22;2.05;;;30.50;1.00;;;;;;4961863;28;20218;-78
2023/09/06 12:43:40;;;;;;;3.55;2.20;;;31.00;1.00;;;;;;4948260;29;20218;-78
2023/09/06 12:46:11;;;;;;;2.58;2.38;;;30.60;1.00;;;;;;4962154;28;20202;-78
2023/09/06 12:48:39;;;;;;;3.42;2.63;;;30.60;1.00;;;;;;4946126;28;20224;-78
2023/09/06 12:51:08;;;;;;;3.20;2.30;;;30.80;1.00;;;;;;4973192;28;20217;-78
2023/09/06 12:53:36;;;;;;;2.83;2.25;;;30.90;1.00;;;;;;4957015;28;20208;-78
2023/09/06 12:56:04;;;;;;;2.95;2.38;;;31.20;1.00;;;;;;4973428;28;20206;-78
2023/09/06 12:58:33;;;;;;;2.88;2.58;;;31.10;1.00;;;;;;4958163;28;20556;-78
2023/09/06 13:01:00;;;;;;;4.00;2.83;;;31.50;1.00;;;;;;4957094;28;20210;-78
2023/09/06 13:03:28;;;;;;;2.70;2.47;;;31.50;1.00;;;;;;4949789;28;20206;-78
2023/09/06 13:05:55;;;;;;;3.95;2.75;;;31.10;1.00;;;;;;4956814;28;20213;-79